Time;durP1;ratioP1;P1;durP2;ratioP2;P2;SDS_P1;SDS_P2;PMS_P1;PMS_P2;Temp;Humidity;BMP_temperature;BMP_pressure;BME280_temperature;BME280_humidity;BME280_pressure;Samples;Min_cycle;Max_cycle;Signal;HPM_P1;HPM_P2
2022/10/05 00:01:31;;;;;;;5.67;3.30;;;14.70;99.90;;;;;;4998797;28;20461;-78
2022/10/05 00:04:06;;;;;;;4.27;3.47;;;14.60;99.90;;;;;;5000330;28;20787;-79
2022/10/05 00:06:44;;;;;;;5.00;4.60;;;14.60;99.90;;;;;;5001294;28;20507;-80
2022/10/05 00:09:22;;;;;;;4.00;3.60;;;14.60;99.90;;;;;;5025069;28;20541;-78
2022/10/05 00:11:53;;;;;;;4.07;3.67;;;14.60;99.90;;;;;;5012247;28;20512;-79
2022/10/05 00:14:28;;;;;;;2.80;2.60;;;14.60;99.90;;;;;;5002443;28;20519;-78
2022/10/05 00:16:57;;;;;;;4.00;3.33;;;14.50;99.90;;;;;;5003313;28;20473;-80
2022/10/05 00:19:34;;;;;;;3.67;3.40;;;14.50;99.90;;;;;;5003737;28;20484;-79
2022/10/05 00:22:11;;;;;;;4.03;3.30;;;14.50;99.90;;;;;;5009678;28;20487;-79
2022/10/05 00:24:51;;;;;;;4.43;3.07;;;14.50;99.90;;;;;;5012179;28;20463;-80
2022/10/05 00:27:20;;;;;;;3.47;2.93;;;14.50;99.90;;;;;;5012184;28;20465;-80
2022/10/05 00:29:51;;;;;;;5.40;3.93;;;14.50;99.90;;;;;;5006868;28;20867;-78
2022/10/05 00:32:21;;;;;;;3.10;2.87;;;14.50;99.90;;;;;;5001709;28;20802;-81
2022/10/05 00:34:53;;;;;;;7.40;3.87;;;14.50;99.90;;;;;;5005127;28;20470;-81
2022/10/05 00:37:20;;;;;;;4.87;3.93;;;14.50;99.90;;;;;;5009442;28;20508;-80
2022/10/05 00:39:53;;;;;;;3.67;3.27;;;14.40;99.90;;;;;;5007318;28;20500;-80
2022/10/05 00:42:49;;;;;;;3.63;3.33;;;14.40;99.90;;;;;;4993447;28;20466;-81
2022/10/05 00:46:06;;;;;;;4.00;3.60;;;14.40;99.90;;;;;;5000418;28;23014;-83
2022/10/05 00:48:42;;;;;;;4.23;3.63;;;14.40;99.90;;;;;;4974861;28;20955;-79
2022/10/05 00:51:25;;;;;;;4.50;3.53;;;14.40;99.90;;;;;;4991210;28;20469;-79
2022/10/05 00:54:09;;;;;;;4.27;3.30;;;14.40;99.90;;;;;;5011308;28;20481;-78
2022/10/05 00:56:54;;;;;;;6.27;3.33;;;14.30;99.90;;;;;;5003468;28;20468;-78
2022/10/05 00:59:57;;;;;;;4.60;3.60;;;14.30;99.90;;;;;;5015752;28;20539;-78
2022/10/05 01:02:30;;;;;;;6.77;3.90;;;14.20;99.90;;;;;;4991315;28;20549;-79
2022/10/05 01:05:10;;;;;;;5.73;3.23;;;14.20;99.90;;;;;;5006367;28;20484;-79
2022/10/05 01:07:44;;;;;;;4.00;3.60;;;14.20;99.90;;;;;;5010474;28;20491;-81
2022/10/05 01:10:25;;;;;;;3.90;3.60;;;14.20;99.90;;;;;;5004685;28;20473;-80
2022/10/05 01:16:51;;;;;;;;;;;;;;;;;;;;;
2022/10/05 01:19:51;;;;;;;4.27;3.60;;;14.10;99.90;;;;;;4962035;28;20488;-81
2022/10/05 01:22:36;;;;;;;8.95;3.65;;;14.10;99.90;;;;;;4995623;28;20470;-81
2022/10/05 01:25:18;;;;;;;4.50;3.40;;;14.10;99.90;;;;;;4995726;28;20258;-81
2022/10/05 01:27:57;;;;;;;6.00;3.93;;;14.10;99.90;;;;;;4995690;28;20876;-78
2022/10/05 01:30:27;;;;;;;4.20;3.73;;;14.10;99.90;;;;;;4994840;28;20507;-78
2022/10/05 01:33:00;;;;;;;4.65;3.50;;;14.10;99.90;;;;;;4995476;28;20528;-78
2022/10/05 01:35:40;;;;;;;4.47;3.50;;;14.10;99.90;;;;;;4994664;28;20690;-78
2022/10/05 01:38:21;;;;;;;4.35;3.58;;;14.10;99.90;;;;;;4995921;28;20470;-79
2022/10/05 01:40:56;;;;;;;3.93;3.10;;;14.10;99.90;;;;;;4995240;28;20671;-78
2022/10/05 01:43:31;;;;;;;5.33;4.00;;;14.10;99.90;;;;;;4995072;28;20474;-78
2022/10/05 01:46:10;;;;;;;5.43;3.50;;;14.10;99.90;;;;;;4994857;28;20480;-78
2022/10/05 01:48:48;;;;;;;6.93;3.17;;;14.10;99.90;;;;;;4994961;28;20572;-79
2022/10/05 01:51:25;;;;;;;4.67;3.67;;;14.10;99.90;;;;;;4986875;28;20468;-79
2022/10/05 01:54:03;;;;;;;5.13;3.87;;;14.10;99.90;;;;;;4981798;28;20513;-78
2022/10/05 01:56:38;;;;;;;4.50;4.07;;;14.10;99.90;;;;;;4993163;28;20503;-78
2022/10/05 01:59:15;;;;;;;4.40;3.83;;;14.10;99.90;;;;;;4984695;28;20963;-78
2022/10/05 02:01:51;;;;;;;5.90;3.90;;;14.10;99.90;;;;;;4981787;28;20477;-78
2022/10/05 02:04:24;;;;;;;3.80;3.50;;;14.10;99.90;;;;;;4983702;28;20475;-79
2022/10/05 02:06:52;;;;;;;5.77;4.00;;;14.10;99.90;;;;;;4988484;28;20293;-78
2022/10/05 02:09:25;;;;;;;2.70;2.50;;;14.10;99.90;;;;;;4987423;28;20470;-78
2022/10/05 02:11:57;;;;;;;3.97;3.65;;;14.10;99.90;;;;;;4981503;28;20230;-79
2022/10/05 02:14:31;;;;;;;4.38;3.97;;;14.10;99.90;;;;;;4981237;28;20294;-78
2022/10/05 02:17:01;;;;;;;6.80;4.50;;;14.10;99.90;;;;;;4986531;28;20226;-78
2022/10/05 02:19:35;;;;;;;4.32;3.63;;;14.00;99.90;;;;;;4976488;28;20499;-78
2022/10/05 02:22:06;;;;;;;6.20;3.50;;;14.00;99.90;;;;;;4985971;28;20599;-78
2022/10/05 02:24:38;;;;;;;5.87;3.50;;;14.00;99.90;;;;;;4988421;28;20546;-78
2022/10/05 02:27:08;;;;;;;3.60;3.03;;;14.00;99.90;;;;;;4988667;28;20564;-78
2022/10/05 02:29:39;;;;;;;4.13;3.25;;;14.00;99.90;;;;;;4990928;28;20521;-78
2022/10/05 02:32:14;;;;;;;4.10;3.33;;;14.00;99.90;;;;;;4985196;28;20277;-78
2022/10/05 02:34:42;;;;;;;5.70;3.60;;;13.90;99.90;;;;;;4980224;28;20778;-76
2022/10/05 02:37:25;;;;;;;3.92;3.40;;;13.90;99.90;;;;;;4983002;28;20498;-79
2022/10/05 02:40:08;;;;;;;3.97;3.58;;;13.90;99.90;;;;;;4983346;28;20234;-82
2022/10/05 02:42:44;;;;;;;5.13;3.47;;;13.90;99.90;;;;;;4981725;28;20621;-81
2022/10/05 02:45:22;;;;;;;4.90;3.58;;;13.90;99.90;;;;;;4982449;28;20474;-80
2022/10/05 02:47:59;;;;;;;4.80;3.60;;;13.90;99.90;;;;;;4981843;28;20233;-80
2022/10/05 02:50:35;;;;;;;3.50;3.20;;;13.90;99.90;;;;;;4978983;28;20968;-80
2022/10/05 02:53:15;;;;;;;3.73;3.43;;;13.90;99.90;;;;;;4983912;28;20498;-80
2022/10/05 02:55:48;;;;;;;3.00;2.80;;;13.90;99.90;;;;;;4982186;28;20481;-79
2022/10/05 02:58:19;;;;;;;5.60;4.40;;;13.90;99.90;;;;;;4985758;28;20466;-78
2022/10/05 03:00:55;;;;;;;3.50;3.20;;;13.90;99.90;;;;;;4981883;28;20540;-77
2022/10/05 03:03:31;;;;;;;4.70;3.83;;;13.90;99.90;;;;;;4981713;28;20984;-77
2022/10/05 03:06:01;;;;;;;3.77;3.50;;;13.90;99.90;;;;;;4991800;28;20816;-77
2022/10/05 03:08:34;;;;;;;4.55;3.70;;;13.90;99.90;;;;;;4994122;28;20462;-78
2022/10/05 03:11:08;;;;;;;6.73;3.53;;;13.90;99.90;;;;;;4978004;28;20676;-78
2022/10/05 03:13:46;;;;;;;4.00;3.08;;;13.90;99.90;;;;;;4995607;28;20475;-78
2022/10/05 03:16:27;;;;;;;6.40;3.20;;;13.90;99.90;;;;;;5000390;28;20226;-78
2022/10/05 03:19:06;;;;;;;6.05;4.72;;;13.90;99.90;;;;;;5005074;28;20467;-77
2022/10/05 03:21:53;;;;;;;4.50;3.60;;;13.90;99.90;;;;;;5005102;28;20226;-78
2022/10/05 03:24:40;;;;;;;4.07;3.67;;;13.90;99.90;;;;;;4999163;28;20449;-78
2022/10/05 03:27:17;;;;;;;3.90;3.20;;;13.90;99.90;;;;;;5012106;28;20895;-79
2022/10/05 03:29:50;;;;;;;4.05;3.65;;;13.90;99.90;;;;;;5006280;28;20866;-79
2022/10/05 03:32:27;;;;;;;4.72;4.05;;;14.00;99.90;;;;;;5024469;28;20665;-78
2022/10/05 03:35:00;;;;;;;7.13;2.80;;;14.00;99.90;;;;;;5012501;28;20230;-77
2022/10/05 03:37:35;;;;;;;4.90;3.60;;;13.90;99.90;;;;;;5019306;28;20223;-78
2022/10/05 03:40:10;;;;;;;4.90;3.63;;;13.90;99.90;;;;;;5012262;28;20862;-78
2022/10/05 03:42:52;;;;;;;5.23;3.87;;;13.90;99.90;;;;;;5008175;28;20543;-78
2022/10/05 03:45:26;;;;;;;3.83;3.43;;;14.00;99.90;;;;;;5010628;28;20986;-78
2022/10/05 03:48:02;;;;;;;7.20;3.20;;;13.90;99.90;;;;;;5013130;28;20470;-77
2022/10/05 03:50:41;;;;;;;4.23;3.57;;;13.90;99.90;;;;;;5013560;28;20557;-78
2022/10/05 03:53:18;;;;;;;8.50;4.00;;;13.90;99.90;;;;;;5008388;28;20479;-77
2022/10/05 03:55:51;;;;;;;3.83;2.70;;;13.90;99.90;;;;;;5012573;28;20482;-77
2022/10/05 03:58:24;;;;;;;6.07;4.25;;;13.90;99.90;;;;;;5015850;28;20484;-77
2022/10/05 04:00:56;;;;;;;6.93;3.70;;;14.00;99.90;;;;;;5025044;28;20312;-77
2022/10/05 04:03:31;;;;;;;6.70;4.10;;;14.00;99.90;;;;;;5017157;28;20473;-77
2022/10/05 04:06:03;;;;;;;9.40;3.77;;;14.00;99.90;;;;;;5018693;28;20476;-78
2022/10/05 04:08:43;;;;;;;3.50;3.00;;;14.00;99.90;;;;;;5026572;28;20503;-77
2022/10/05 04:11:15;;;;;;;4.03;3.20;;;14.00;99.90;;;;;;5019236;28;20823;-78
2022/10/05 04:13:47;;;;;;;5.47;4.03;;;14.00;99.90;;;;;;5019621;28;20301;-79
2022/10/05 04:16:18;;;;;;;3.40;3.10;;;14.00;99.90;;;;;;5018702;28;20464;-77
2022/10/05 04:18:50;;;;;;;4.33;3.37;;;14.00;99.90;;;;;;5017584;28;20496;-80
2022/10/05 04:21:23;;;;;;;3.53;3.23;;;14.00;99.90;;;;;;5015940;28;20535;-77
2022/10/05 04:23:59;;;;;;;5.13;3.53;;;14.00;99.90;;;;;;5018115;28;20809;-80
2022/10/05 04:26:33;;;;;;;5.43;3.70;;;14.00;99.90;;;;;;5018007;28;20257;-79
2022/10/05 04:29:11;;;;;;;6.65;3.88;;;13.90;99.90;;;;;;5023668;28;20464;-80
2022/10/05 04:31:52;;;;;;;7.43;3.97;;;14.00;99.90;;;;;;5026537;28;20230;-78
2022/10/05 04:34:37;;;;;;;7.00;3.58;;;14.00;99.90;;;;;;5022006;28;20482;-78
2022/10/05 04:37:09;;;;;;;3.30;2.72;;;14.00;99.90;;;;;;5023064;28;20253;-79
2022/10/05 04:39:45;;;;;;;3.70;3.35;;;14.00;99.90;;;;;;5024259;28;20250;-80
2022/10/05 04:42:20;;;;;;;5.00;4.33;;;14.00;99.90;;;;;;5021199;28;20232;-79
2022/10/05 04:45:07;;;;;;;4.60;3.83;;;14.00;99.90;;;;;;5021436;28;20456;-80
2022/10/05 04:48:03;;;;;;;4.07;3.20;;;14.00;99.90;;;;;;5018703;28;20468;-80
2022/10/05 04:50:44;;;;;;;4.20;3.70;;;14.00;99.90;;;;;;5025434;28;20471;-79
2022/10/05 04:53:22;;;;;;;5.30;3.63;;;13.90;99.90;;;;;;5024940;28;20472;-80
2022/10/05 04:55:56;;;;;;;6.13;2.90;;;13.90;99.90;;;;;;5020680;28;20234;-78
2022/10/05 04:58:35;;;;;;;5.93;4.30;;;13.90;99.90;;;;;;5021917;28;20300;-78
2022/10/05 05:01:17;;;;;;;3.97;3.53;;;13.90;99.90;;;;;;5026655;28;21016;-80
2022/10/05 05:04:12;;;;;;;3.65;3.35;;;13.80;99.90;;;;;;5027139;28;20471;-79
2022/10/05 05:06:48;;;;;;;5.03;3.95;;;13.90;99.90;;;;;;5023239;28;20809;-78
2022/10/05 05:09:44;;;;;;;4.70;3.50;;;13.90;99.90;;;;;;5019474;28;20524;-77
2022/10/05 05:12:25;;;;;;;3.93;3.47;;;13.90;99.90;;;;;;5018579;28;20815;-77
2022/10/05 05:15:27;;;;;;;3.67;3.37;;;13.90;99.90;;;;;;5021182;28;20468;-79
2022/10/05 05:18:16;;;;;;;8.33;3.30;;;13.90;99.90;;;;;;5008440;28;20938;-78
2022/10/05 05:20:54;;;;;;;10.60;3.90;;;13.90;99.90;;;;;;5022241;28;20553;-80
2022/10/05 05:23:42;;;;;;;5.45;4.18;;;13.90;99.90;;;;;;5020192;28;20808;-78
2022/10/05 05:26:17;;;;;;;3.87;3.00;;;13.90;99.90;;;;;;5026090;28;20234;-78
2022/10/05 05:28:51;;;;;;;4.50;3.10;;;13.90;99.90;;;;;;5022670;28;20492;-79
2022/10/05 05:31:28;;;;;;;4.47;3.63;;;13.90;99.90;;;;;;5022159;28;20568;-79
2022/10/05 05:34:05;;;;;;;4.70;4.27;;;13.90;99.90;;;;;;5019850;28;20813;-80
2022/10/05 05:36:53;;;;;;;8.33;5.70;;;13.90;99.90;;;;;;5016536;28;20914;-80
2022/10/05 05:39:26;;;;;;;6.43;5.83;;;13.90;99.90;;;;;;5015511;28;20563;-80
2022/10/05 05:42:03;;;;;;;7.18;5.63;;;13.90;99.90;;;;;;5015544;28;20477;-79
2022/10/05 05:44:35;;;;;;;8.13;7.30;;;13.90;99.90;;;;;;5015266;28;20276;-77
2022/10/05 05:47:07;;;;;;;8.75;7.95;;;13.90;99.90;;;;;;5015034;28;20557;-78
2022/10/05 05:49:49;;;;;;;9.67;7.83;;;13.90;99.90;;;;;;5015359;28;20245;-79
2022/10/05 05:52:22;;;;;;;6.83;4.37;;;13.90;99.90;;;;;;5014757;28;20512;-80
2022/10/05 05:54:56;;;;;;;8.00;6.67;;;13.90;99.90;;;;;;5015412;28;20809;-80
2022/10/05 05:57:28;;;;;;;16.83;12.60;;;13.90;99.90;;;;;;5013945;28;20511;-80
2022/10/05 06:00:04;;;;;;;10.45;7.80;;;13.90;99.90;;;;;;5021033;28;20465;-79
2022/10/05 06:02:40;;;;;;;13.98;9.50;;;13.90;99.90;;;;;;5013071;28;20226;-78
2022/10/05 06:05:24;;;;;;;10.60;7.57;;;13.90;99.90;;;;;;5015370;28;20245;-78
2022/10/05 06:07:52;;;;;;;6.85;5.65;;;13.90;99.90;;;;;;5015864;28;20832;-78
2022/10/05 06:10:32;;;;;;;6.47;5.23;;;14.00;99.90;;;;;;5014975;28;20222;-80
2022/10/05 06:13:06;;;;;;;5.15;4.53;;;14.00;99.90;;;;;;5013442;28;20530;-80
2022/10/05 06:15:38;;;;;;;5.80;4.73;;;14.10;99.90;;;;;;5020808;28;20218;-80
2022/10/05 06:18:18;;;;;;;5.10;3.90;;;14.10;99.90;;;;;;5009761;28;20473;-80
2022/10/05 06:20:54;;;;;;;4.80;4.03;;;14.10;99.90;;;;;;5014935;28;20465;-80
2022/10/05 06:23:31;;;;;;;7.70;6.47;;;14.20;99.90;;;;;;5014496;28;20784;-81
2022/10/05 06:26:28;;;;;;;5.72;5.13;;;14.10;99.90;;;;;;5017560;28;20539;-80
2022/10/05 06:29:03;;;;;;;7.22;5.28;;;14.10;99.90;;;;;;5015401;28;20246;-80
2022/10/05 06:31:45;;;;;;;5.10;4.60;;;14.20;99.90;;;;;;5014650;28;20221;-80
2022/10/05 06:34:28;;;;;;;5.00;4.37;;;14.20;99.90;;;;;;5014368;28;20972;-81
2022/10/05 06:37:00;;;;;;;7.03;4.63;;;14.20;99.90;;;;;;5015654;28;20464;-80
2022/10/05 06:39:46;;;;;;;6.82;5.63;;;14.20;99.90;;;;;;5015476;28;20795;-81
2022/10/05 06:43:02;;;;;;;8.40;6.50;;;14.20;99.90;;;;;;5015553;28;20241;-79
2022/10/05 06:45:42;;;;;;;15.30;12.05;;;14.20;99.90;;;;;;4962602;28;20451;-79
2022/10/05 06:48:16;;;;;;;7.77;6.83;;;14.30;99.90;;;;;;4974164;28;20231;-79
2022/10/05 06:50:48;;;;;;;8.60;4.60;;;14.30;99.90;;;;;;5004037;28;20469;-80
2022/10/05 06:53:29;;;;;;;9.47;6.63;;;14.30;99.90;;;;;;5014526;28;21169;-80
2022/10/05 06:56:04;;;;;;;9.43;5.80;;;14.40;99.90;;;;;;5016701;28;20543;-80
2022/10/05 06:58:53;;;;;;;6.60;5.00;;;14.40;99.90;;;;;;5015914;28;20511;-80
2022/10/05 07:01:34;;;;;;;4.43;4.03;;;14.40;99.90;;;;;;5013226;28;20814;-81
2022/10/05 07:04:15;;;;;;;4.60;3.97;;;14.40;99.90;;;;;;5014129;28;20546;-81
2022/10/05 07:06:50;;;;;;;7.73;4.10;;;14.40;99.90;;;;;;5015038;28;20452;-79
2022/10/05 07:09:32;;;;;;;4.50;3.60;;;14.50;99.90;;;;;;5014372;28;20460;-80
2022/10/05 07:12:13;;;;;;;6.33;4.20;;;14.50;99.90;;;;;;5013561;28;20823;-80
2022/10/05 07:14:59;;;;;;;6.07;3.87;;;14.50;99.90;;;;;;5014838;28;20465;-80
2022/10/05 07:17:47;;;;;;;6.17;3.53;;;14.50;99.90;;;;;;5013261;28;21000;-80
2022/10/05 07:20:18;;;;;;;7.53;4.13;;;14.60;99.90;;;;;;5014256;28;20477;-80
2022/10/05 07:23:03;;;;;;;4.70;4.30;;;14.50;99.90;;;;;;5015675;28;20539;-78
2022/10/05 07:25:37;;;;;;;5.10;4.70;;;14.60;99.90;;;;;;5013732;28;20521;-80
2022/10/05 07:28:09;;;;;;;4.77;4.37;;;14.60;99.90;;;;;;5014096;28;20461;-78
2022/10/05 07:30:52;;;;;;;6.00;4.60;;;14.70;99.90;;;;;;5013691;28;20476;-79
2022/10/05 07:33:25;;;;;;;10.80;6.63;;;14.70;99.90;;;;;;5014166;28;20480;-79
2022/10/05 07:38:49;;;;;;;14.50;11.57;;;14.80;99.90;;;;;;5015301;28;20459;-77
2022/10/05 07:41:23;;;;;;;6.40;5.40;;;14.90;99.90;;;;;;5014719;28;20586;-77
2022/10/05 07:43:57;;;;;;;9.30;5.47;;;14.90;99.90;;;;;;5015940;28;20456;-79
2022/10/05 07:46:35;;;;;;;8.83;6.03;;;15.00;99.90;;;;;;5014152;28;20469;-80
2022/10/05 07:49:14;;;;;;;7.73;4.00;;;15.10;99.90;;;;;;5013638;28;20479;-80
2022/10/05 07:51:45;;;;;;;12.20;8.70;;;15.10;99.90;;;;;;5013872;28;20473;-79
2022/10/05 07:54:20;;;;;;;8.50;4.80;;;15.20;99.90;;;;;;5013995;28;20461;-80
2022/10/05 07:56:52;;;;;;;6.83;4.80;;;15.20;99.90;;;;;;5013663;28;20534;-78
2022/10/05 07:59:28;;;;;;;4.20;3.80;;;15.30;99.90;;;;;;5015017;28;20499;-77
2022/10/05 08:02:07;;;;;;;7.27;4.53;;;15.30;99.90;;;;;;5013947;28;20463;-77
2022/10/05 08:04:51;;;;;;;6.33;4.63;;;15.40;99.90;;;;;;5013642;28;20531;-79
2022/10/05 08:07:19;;;;;;;7.47;4.97;;;15.40;99.90;;;;;;5014660;28;20484;-80
2022/10/05 08:09:53;;;;;;;6.70;5.80;;;15.50;99.90;;;;;;5014699;28;20477;-79
2022/10/05 08:12:29;;;;;;;5.30;4.50;;;15.50;99.90;;;;;;5014697;28;20490;-79
2022/10/05 08:14:58;;;;;;;5.63;4.40;;;15.60;99.90;;;;;;5014698;28;20456;-78
2022/10/05 08:17:35;;;;;;;5.90;4.80;;;15.60;99.90;;;;;;5014705;28;20469;-80
2022/10/05 08:20:27;;;;;;;12.57;7.60;;;15.70;99.90;;;;;;5014501;28;20998;-77
2022/10/05 08:23:04;;;;;;;8.70;6.90;;;15.80;99.90;;;;;;5014929;28;20473;-79
2022/10/05 08:25:42;;;;;;;6.73;4.40;;;15.90;99.90;;;;;;5015610;28;20539;-79
2022/10/05 08:28:17;;;;;;;4.70;4.27;;;15.90;99.90;;;;;;5015568;28;20514;-80
2022/10/05 08:30:54;;;;;;;5.40;4.87;;;16.00;99.90;;;;;;5020310;28;20476;-79
2022/10/05 08:33:24;;;;;;;4.47;3.63;;;16.00;99.90;;;;;;5021501;28;20864;-79
2022/10/05 08:36:03;;;;;;;4.93;3.83;;;16.00;99.90;;;;;;5024660;28;20491;-80
2022/10/05 08:38:33;;;;;;;4.73;4.10;;;16.10;99.90;;;;;;5022208;28;20470;-81
2022/10/05 08:41:45;;;;;;;6.33;4.87;;;16.20;99.90;;;;;;5021774;28;20473;-77
2022/10/05 08:44:42;;;;;;;4.50;4.00;;;16.10;99.90;;;;;;5026728;28;20474;-77
2022/10/05 08:47:32;;;;;;;4.20;3.23;;;16.10;99.90;;;;;;5025246;28;20542;-79
2022/10/05 08:50:25;;;;;;;5.73;5.03;;;16.20;99.90;;;;;;5027635;28;20470;-80
2022/10/05 08:56:01;;;;;;;5.93;4.80;;;16.30;99.90;;;;;;5113084;27;20610;-77
2022/10/05 08:58:59;;;;;;;6.20;4.40;;;16.40;99.90;;;;;;5079484;28;20460;-78
2022/10/05 09:01:44;;;;;;;9.43;5.60;;;16.50;99.90;;;;;;5060580;28;20509;-78
2022/10/05 09:04:32;;;;;;;7.90;5.03;;;16.60;99.90;;;;;;5058329;28;20470;-78
2022/10/05 09:07:18;;;;;;;4.37;3.97;;;16.60;99.90;;;;;;5058855;28;20497;-78
2022/10/05 09:10:20;;;;;;;7.83;3.40;;;16.60;99.90;;;;;;5060789;28;20473;-79
2022/10/05 09:13:25;;;;;;;7.97;4.53;;;16.70;99.90;;;;;;5056969;28;20463;-79
2022/10/05 09:16:22;;;;;;;9.17;5.83;;;16.70;99.90;;;;;;5056159;28;20453;-80
2022/10/05 09:19:15;;;;;;;6.40;5.13;;;16.80;99.90;;;;;;5053714;28;20492;-79
2022/10/05 09:21:48;;;;;;;9.33;4.80;;;16.80;99.90;;;;;;5050640;28;21045;-77
2022/10/05 09:24:27;;;;;;;4.53;3.40;;;16.80;99.90;;;;;;5052834;28;20478;-77
2022/10/05 09:27:04;;;;;;;7.60;5.60;;;16.90;99.90;;;;;;5052926;28;20486;-78
2022/10/05 09:30:07;;;;;;;6.33;3.80;;;16.90;99.90;;;;;;5051464;28;20499;-77
2022/10/05 09:33:14;;;;;;;4.33;3.37;;;16.90;99.90;;;;;;5033688;28;21016;-77
2022/10/05 09:36:24;;;;;;;7.57;3.53;;;16.90;99.90;;;;;;5052456;28;20547;-79
2022/10/05 09:39:28;;;;;;;6.60;3.43;;;17.00;99.90;;;;;;5049400;28;20552;-78
2022/10/05 09:42:28;;;;;;;4.80;4.27;;;17.00;99.90;;;;;;5039519;28;20465;-78
2022/10/05 09:45:56;;;;;;;;;;;;;;;;;;;;;
2022/10/05 09:49:29;;;;;;;6.13;5.50;;;17.10;99.90;;;;;;5049863;28;20471;-78
2022/10/05 09:52:08;;;;;;;5.50;3.93;;;17.20;99.90;;;;;;5049668;28;20495;-78
2022/10/05 09:55:24;;;;;;;6.13;4.27;;;17.20;99.90;;;;;;5068864;28;20480;-78
2022/10/05 09:58:23;;;;;;;6.80;4.20;;;17.30;99.90;;;;;;5068315;28;20473;-78
2022/10/05 10:01:09;;;;;;;6.03;3.67;;;17.30;99.90;;;;;;5061201;28;20480;-77
2022/10/05 10:04:12;;;;;;;4.23;3.70;;;17.40;99.90;;;;;;5130414;22;20989;-79
2022/10/05 10:07:12;;;;;;;4.80;3.80;;;17.50;99.90;;;;;;5019165;28;20506;-78
2022/10/05 10:10:06;;;;;;;3.43;3.13;;;17.60;99.90;;;;;;5007830;28;20486;-78
2022/10/05 10:12:41;;;;;;;4.83;3.63;;;17.60;99.90;;;;;;5006814;28;20526;-78
2022/10/05 10:15:41;;;;;;;5.03;4.10;;;17.60;99.90;;;;;;5017204;28;20471;-78
2022/10/05 10:19:00;;;;;;;;;;;;;;;;;;;;;
2022/10/05 10:22:15;;;;;;;5.10;4.03;;;17.60;99.90;;;;;;5005007;28;20811;-78
2022/10/05 10:25:20;;;;;;;5.90;3.70;;;17.70;99.90;;;;;;4956141;28;20619;-79
2022/10/05 10:28:29;;;;;;;4.73;4.30;;;17.70;99.90;;;;;;4946577;29;20482;-78
2022/10/05 10:31:41;;;;;;;;;;;;;;;;;;;;;
2022/10/05 10:34:36;;;;;;;9.47;7.30;;;17.60;99.90;;;;;;5003825;28;20464;-77
2022/10/05 10:37:36;;;;;;;5.33;4.17;;;17.60;99.90;;;;;;4996811;28;20892;-81
2022/10/05 10:40:26;;;;;;;6.10;4.67;;;17.60;99.90;;;;;;4996582;28;20983;-80
2022/10/05 10:43:29;;;;;;;8.10;5.27;;;17.70;99.90;;;;;;4988085;28;20469;-80
2022/10/05 10:46:05;;;;;;;4.40;4.00;;;17.60;99.90;;;;;;5006990;28;21078;-79
2022/10/05 10:48:56;;;;;;;4.80;3.77;;;17.70;99.90;;;;;;4996692;28;20460;-79
2022/10/05 10:51:51;;;;;;;4.43;3.87;;;17.70;99.90;;;;;;4996848;28;20539;-80
2022/10/05 10:54:51;;;;;;;4.37;3.43;;;17.70;99.90;;;;;;5009513;28;20469;-78
2022/10/05 10:57:27;;;;;;;6.30;3.33;;;17.70;99.90;;;;;;5015342;28;20468;-79
2022/10/05 11:00:30;;;;;;;3.83;3.43;;;17.80;99.90;;;;;;5015843;28;20496;-82
2022/10/05 11:03:36;;;;;;;6.30;4.20;;;17.80;99.90;;;;;;5006350;28;20534;-80
2022/10/05 11:06:28;;;;;;;5.63;5.10;;;17.80;99.90;;;;;;5014801;28;20459;-79
2022/10/05 11:09:21;;;;;;;3.53;3.23;;;17.80;99.90;;;;;;5013840;28;20516;-78
2022/10/05 11:12:27;;;;;;;4.43;4.03;;;17.80;99.90;;;;;;5014778;28;20472;-78
2022/10/05 11:15:17;;;;;;;4.43;4.03;;;17.90;99.90;;;;;;5015033;28;20559;-78
2022/10/05 11:17:58;;;;;;;4.57;3.77;;;17.90;99.90;;;;;;5014528;28;20512;-79
2022/10/05 11:21:15;;;;;;;4.97;3.67;;;18.00;99.90;;;;;;5016317;28;20816;-79
2022/10/05 11:27:07;;;;;;;3.17;2.87;;;18.00;99.90;;;;;;5013358;28;20528;-79
2022/10/05 11:29:58;;;;;;;7.90;4.77;;;18.10;99.90;;;;;;5014612;28;20529;-78
2022/10/05 11:33:10;;;;;;;5.20;3.77;;;18.20;99.90;;;;;;5013773;28;20477;-78
2022/10/05 11:35:59;;;;;;;4.37;3.97;;;18.30;99.90;;;;;;4987149;28;20469;-77
2022/10/05 11:38:57;;;;;;;3.63;3.33;;;18.40;99.90;;;;;;5013885;28;20479;-78
2022/10/05 11:41:58;;;;;;;7.63;5.20;;;18.60;99.90;;;;;;5014215;28;20538;-79
2022/10/05 11:44:56;;;;;;;6.87;6.20;;;18.60;99.90;;;;;;5017284;28;20469;-80
2022/10/05 11:47:28;;;;;;;4.73;4.30;;;18.70;99.90;;;;;;5013547;28;20523;-80
2022/10/05 11:50:05;;;;;;;5.83;4.97;;;18.70;99.90;;;;;;5015760;28;20527;-80
2022/10/05 11:52:40;;;;;;;7.80;6.90;;;18.80;99.90;;;;;;5014312;28;20484;-79
2022/10/05 11:55:21;;;;;;;7.00;6.37;;;18.90;99.90;;;;;;5013065;28;20477;-80
2022/10/05 11:57:51;;;;;;;9.43;7.60;;;18.90;99.90;;;;;;5015742;28;20460;-80
2022/10/05 12:00:22;;;;;;;8.77;6.13;;;18.90;99.90;;;;;;5017522;28;20465;-80
2022/10/05 12:03:15;;;;;;;7.47;5.67;;;19.00;99.90;;;;;;5014212;28;20475;-80
2022/10/05 12:05:56;;;;;;;6.70;6.00;;;19.00;99.90;;;;;;5014140;28;20470;-78
2022/10/05 12:08:33;;;;;;;5.77;5.17;;;19.00;99.90;;;;;;5014490;28;20507;-79
2022/10/05 12:11:09;;;;;;;8.30;6.03;;;19.10;99.90;;;;;;5013452;28;20523;-79
2022/10/05 12:13:53;;;;;;;5.93;4.90;;;19.10;99.90;;;;;;5013827;28;20970;-80
2022/10/05 12:16:26;;;;;;;6.10;4.30;;;19.10;99.90;;;;;;5014284;28;20469;-80
2022/10/05 12:19:00;;;;;;;4.90;4.47;;;19.10;99.90;;;;;;5013648;28;20469;-76
2022/10/05 12:21:37;;;;;;;4.97;3.93;;;19.20;99.90;;;;;;5013271;28;20493;-77
2022/10/05 12:24:14;;;;;;;5.20;4.30;;;19.30;99.90;;;;;;5013839;28;20476;-78
2022/10/05 12:26:47;;;;;;;4.00;3.70;;;19.30;99.90;;;;;;5013867;28;20865;-77
2022/10/05 12:29:20;;;;;;;3.60;3.30;;;19.30;99.90;;;;;;5013612;28;20552;-77
2022/10/05 12:31:59;;;;;;;3.33;3.13;;;19.30;99.90;;;;;;5014721;28;20511;-79
2022/10/05 12:34:40;;;;;;;3.70;3.40;;;19.40;99.90;;;;;;5014281;28;20468;-79
2022/10/05 12:37:16;;;;;;;3.83;3.60;;;19.40;99.90;;;;;;5014052;28;20532;-79
2022/10/05 12:39:53;;;;;;;4.27;3.93;;;19.40;99.90;;;;;;5014266;28;20461;-80
2022/10/05 12:42:30;;;;;;;4.63;4.00;;;19.50;99.90;;;;;;5013812;28;20465;-78
2022/10/05 12:45:44;;;;;;;6.00;5.50;;;19.50;99.90;;;;;;5013301;28;20467;-78
2022/10/05 12:48:25;;;;;;;8.93;7.43;;;19.60;99.90;;;;;;5014160;28;20891;-78
2022/10/05 12:50:58;;;;;;;8.93;8.13;;;19.60;99.90;;;;;;5013449;28;20480;-77
2022/10/05 12:53:41;;;;;;;6.20;4.90;;;19.50;99.90;;;;;;5014024;28;20469;-78
2022/10/05 12:56:11;;;;;;;5.53;4.83;;;19.60;99.90;;;;;;5013527;28;20461;-79
2022/10/05 12:58:49;;;;;;;7.40;3.83;;;19.50;99.90;;;;;;5013951;28;20473;-78
2022/10/05 13:01:28;;;;;;;4.10;3.63;;;19.50;99.90;;;;;;4993100;28;20471;-78
2022/10/05 13:04:45;;;;;;;6.80;5.23;;;19.50;99.90;;;;;;4992255;28;20479;-79
2022/10/05 13:07:34;;;;;;;5.47;4.97;;;19.60;99.90;;;;;;4985292;28;20465;-78
2022/10/05 13:10:16;;;;;;;5.17;4.63;;;19.60;99.90;;;;;;5012982;28;20584;-77
2022/10/05 13:12:54;;;;;;;4.03;3.43;;;19.60;99.90;;;;;;5011675;28;20921;-79
2022/10/05 13:15:31;;;;;;;4.13;3.73;;;19.60;99.90;;;;;;5014226;28;20464;-79
2022/10/05 13:18:15;;;;;;;3.23;2.93;;;19.70;99.90;;;;;;5005221;28;20550;-80
2022/10/05 13:20:51;;;;;;;5.60;4.60;;;19.70;99.90;;;;;;5009986;28;20548;-77
2022/10/05 13:23:30;;;;;;;3.87;3.40;;;19.70;99.90;;;;;;5014023;28;20461;-77
2022/10/05 13:26:09;;;;;;;3.77;3.47;;;19.70;99.90;;;;;;5013580;28;20497;-79
2022/10/05 13:28:43;;;;;;;4.60;3.30;;;19.70;99.90;;;;;;5013959;28;20469;-79
2022/10/05 13:31:17;;;;;;;4.50;3.27;;;19.70;99.90;;;;;;5014094;28;20545;-79
2022/10/05 13:33:58;;;;;;;3.20;2.93;;;19.70;99.90;;;;;;5016128;28;20473;-79
2022/10/05 13:36:35;;;;;;;3.40;2.63;;;19.70;99.90;;;;;;5016216;28;20519;-78
2022/10/05 13:39:13;;;;;;;4.03;3.13;;;19.70;99.90;;;;;;5016727;28;20473;-78
2022/10/05 13:41:49;;;;;;;6.70;6.10;;;19.80;99.90;;;;;;5016997;28;20461;-78
2022/10/05 13:44:26;;;;;;;3.53;3.20;;;19.80;99.90;;;;;;5017999;28;20493;-77
2022/10/05 13:47:01;;;;;;;4.83;4.27;;;19.80;99.90;;;;;;5018171;28;20503;-78
2022/10/05 13:49:36;;;;;;;7.47;6.50;;;19.80;99.90;;;;;;5019952;28;20969;-78
2022/10/05 13:52:22;;;;;;;3.93;3.60;;;19.80;99.90;;;;;;5020069;28;20481;-80
2022/10/05 13:55:14;;;;;;;4.07;3.70;;;19.90;99.90;;;;;;5019253;28;20464;-79
2022/10/05 13:57:57;;;;;;;3.87;3.57;;;19.80;99.90;;;;;;5019698;28;20495;-79
2022/10/05 14:00:26;;;;;;;4.47;3.87;;;19.90;99.90;;;;;;5029043;28;20461;-78
2022/10/05 14:02:55;;;;;;;10.17;4.60;;;19.90;99.90;;;;;;5029370;28;20456;-78
2022/10/05 14:05:24;;;;;;;5.37;4.50;;;19.90;99.90;;;;;;5031573;28;20469;-79
2022/10/05 14:07:54;;;;;;;8.33;3.83;;;19.90;99.90;;;;;;5026423;28;20491;-78
2022/10/05 14:10:41;;;;;;;5.60;3.60;;;19.90;99.90;;;;;;5030643;28;20473;-78
2022/10/05 14:13:21;;;;;;;4.60;4.00;;;20.00;99.90;;;;;;5032705;28;20470;-77
2022/10/05 14:16:07;;;;;;;4.83;3.50;;;19.90;99.90;;;;;;5034270;28;20475;-78
2022/10/05 14:18:41;;;;;;;3.73;3.40;;;19.90;99.90;;;;;;5027156;28;20469;-79